createdAt,value
2018-12-24T00:32:07.335Z,0.00
2018-12-24T00:33:07.396Z,0.00
2018-12-24T00:34:07.281Z,0.00
2018-12-24T00:35:07.276Z,0.00
2018-12-24T00:36:07.344Z,0.00
2018-12-24T00:37:07.202Z,0.00
2018-12-24T00:38:07.193Z,0.00
2018-12-24T00:39:07.988Z,0.00
2018-12-24T00:40:07.116Z,0.00
2018-12-24T00:41:07.121Z,0.00
2018-12-24T00:42:15.659Z,0.00
2018-12-24T00:43:07.044Z,0.00
2018-12-24T00:45:30.052Z,0.00
2018-12-24T00:46:30.935Z,0.00
2018-12-24T00:47:30.504Z,0.00
2018-12-24T00:48:30.136Z,0.00
2018-12-24T00:49:29.934Z,0.00
2018-12-24T00:50:29.910Z,0.00
2018-12-24T00:51:29.878Z,0.00
2018-12-24T00:52:29.910Z,0.00
2018-12-24T00:53:29.900Z,0.00
2018-12-24T00:54:30.062Z,0.00
2018-12-24T00:55:30.798Z,0.00
2018-12-24T00:56:29.769Z,0.00
2018-12-24T00:57:29.888Z,0.00
2018-12-24T00:58:29.704Z,0.00
2018-12-24T00:59:29.683Z,0.00
2018-12-24T01:00:29.657Z,0.00
2018-12-24T01:01:29.770Z,0.00
2018-12-24T01:02:29.782Z,0.00
2018-12-24T01:03:29.601Z,0.00
2018-12-24T01:04:29.602Z,0.00
2018-12-24T01:05:29.535Z,0.00
2018-12-24T01:06:29.537Z,0.00
2018-12-24T01:07:29.486Z,0.00
2018-12-24T01:08:29.515Z,0.00
2018-12-24T01:09:29.503Z,0.00
2018-12-24T01:10:29.412Z,0.00
2018-12-24T01:11:29.472Z,0.00
2018-12-24T01:12:29.404Z,0.00
2018-12-24T01:13:29.474Z,0.00
2018-12-24T01:14:29.371Z,0.00
2018-12-24T01:15:29.645Z,0.00
2018-12-24T01:16:29.267Z,0.00
2018-12-24T01:17:29.260Z,0.00
2018-12-24T01:18:29.232Z,0.00
2018-12-24T01:19:29.444Z,0.00
2018-12-24T01:20:29.187Z,0.00
2018-12-24T01:21:29.177Z,0.00
2018-12-24T01:22:29.120Z,0.00
2018-12-24T01:23:29.342Z,0.00
2018-12-24T01:24:29.077Z,0.00
2018-12-24T01:25:29.070Z,0.00
2018-12-24T01:26:29.076Z,0.00
2018-12-24T01:27:29.019Z,0.00
2018-12-24T01:28:29.006Z,0.00
2018-12-24T01:29:28.966Z,0.00
2018-12-24T01:30:30.084Z,0.00
2018-12-24T01:31:28.954Z,0.00
2018-12-24T01:32:28.887Z,0.00
2018-12-24T01:33:28.876Z,0.00
2018-12-24T01:34:28.850Z,0.00
2018-12-24T01:35:28.811Z,0.00
2018-12-24T01:36:28.789Z,0.00
2018-12-24T01:37:28.776Z,0.00
2018-12-24T01:38:28.759Z,0.00
2018-12-24T01:39:29.523Z,0.00
2018-12-24T01:40:28.708Z,0.00
2018-12-24T01:41:28.775Z,0.00
2018-12-24T01:42:33.458Z,0.00
2018-12-24T01:43:28.620Z,0.00
2018-12-24T01:44:28.640Z,0.00
2018-12-24T01:45:28.664Z,0.00
2018-12-24T01:46:28.550Z,0.00
2018-12-24T01:47:28.543Z,0.00
2018-12-24T01:48:28.508Z,0.00
2018-12-24T01:49:28.486Z,0.00
2018-12-24T01:50:28.461Z,0.00
2018-12-24T01:51:28.515Z,0.00
2018-12-24T01:52:28.421Z,0.00
2018-12-24T01:53:28.393Z,0.00
2018-12-24T01:54:28.526Z,0.00
2018-12-24T01:55:28.344Z,0.00
2018-12-24T01:56:28.335Z,0.00
2018-12-24T01:57:28.287Z,0.00
2018-12-24T01:58:28.300Z,0.00
2018-12-24T01:59:28.276Z,0.00
2018-12-24T02:00:28.221Z,0.00
2018-12-24T02:01:28.196Z,0.00
2018-12-24T02:02:28.167Z,0.00
2018-12-24T02:03:28.155Z,0.00
2018-12-24T02:04:28.165Z,0.00
2018-12-24T02:05:28.128Z,0.00
2018-12-24T02:06:28.091Z,0.00
2018-12-24T02:07:28.079Z,0.00
2018-12-24T02:08:28.031Z,0.00
2018-12-24T02:09:28.026Z,0.00
2018-12-24T02:10:28.001Z,0.00
2018-12-24T02:11:27.984Z,0.00
2018-12-24T02:12:27.935Z,0.00
2018-12-24T02:13:27.909Z,0.00
2018-12-24T02:14:27.884Z,0.00
2018-12-24T02:15:27.879Z,0.00
2018-12-24T02:16:27.874Z,0.00
2018-12-24T02:17:27.817Z,0.00
2018-12-24T02:18:27.786Z,0.00
2018-12-24T02:19:27.786Z,0.00
2018-12-24T02:20:27.763Z,0.00
2018-12-24T02:21:27.727Z,0.00
2018-12-24T02:22:27.695Z,0.00
2018-12-24T02:23:27.673Z,0.00
2018-12-24T02:24:27.644Z,0.00
2018-12-24T02:25:27.625Z,0.00
2018-12-24T02:26:27.600Z,0.00
2018-12-24T02:27:27.571Z,0.00
2018-12-24T02:28:27.603Z,0.00
2018-12-24T02:29:27.537Z,0.00
2018-12-24T02:30:27.507Z,0.00
2018-12-24T02:31:27.502Z,0.00
2018-12-24T02:32:27.511Z,0.00
2018-12-24T02:33:27.462Z,0.00
2018-12-24T02:34:27.427Z,0.00
2018-12-24T02:35:27.436Z,0.00
2018-12-24T02:36:27.365Z,0.00
2018-12-24T02:37:27.346Z,0.00
2018-12-24T02:38:27.332Z,0.00
2018-12-24T02:39:27.310Z,0.00
2018-12-24T02:40:27.268Z,0.00
2018-12-24T02:41:27.268Z,0.00
2018-12-24T02:42:27.227Z,0.00
2018-12-24T02:43:27.201Z,0.00
2018-12-24T02:44:27.175Z,0.00
2018-12-24T02:45:27.156Z,0.00
2018-12-24T02:46:27.135Z,0.00
2018-12-24T02:47:27.102Z,0.00
2018-12-24T02:48:27.110Z,0.00
2018-12-24T02:49:27.089Z,0.00
2018-12-24T02:50:27.036Z,0.00
2018-12-24T02:51:27.005Z,0.00
2018-12-24T02:52:27.010Z,0.00
2018-12-24T02:53:26.981Z,0.00
2018-12-24T02:54:26.951Z,0.00
2018-12-24T02:55:26.920Z,0.00
2018-12-24T02:56:26.887Z,0.00
2018-12-24T02:57:26.867Z,0.00
2018-12-24T02:58:26.838Z,0.00
2018-12-24T02:59:26.829Z,0.00
2018-12-24T03:00:26.835Z,0.00
2018-12-24T03:01:26.782Z,0.00
2018-12-24T03:02:26.759Z,0.00
2018-12-24T03:03:26.737Z,0.00
2018-12-24T03:04:26.699Z,0.00
2018-12-24T03:05:26.692Z,0.00
2018-12-24T03:06:26.654Z,0.00
2018-12-24T03:07:26.628Z,0.00
2018-12-24T03:08:26.603Z,0.00
2018-12-24T03:09:26.609Z,0.00
2018-12-24T03:10:26.579Z,0.00
2018-12-24T03:11:26.574Z,0.00
2018-12-24T03:12:26.548Z,0.00
2018-12-24T03:13:26.510Z,0.00
2018-12-24T03:14:26.488Z,0.00
2018-12-24T03:15:26.475Z,0.00
2018-12-24T03:16:26.425Z,0.00
2018-12-24T03:17:26.394Z,0.00
2018-12-24T03:18:26.380Z,0.00
2018-12-24T03:19:26.346Z,0.00
2018-12-24T03:20:26.373Z,0.00
2018-12-24T03:21:26.300Z,0.00
2018-12-24T03:22:26.374Z,0.00
2018-12-24T03:23:26.250Z,0.00
2018-12-24T03:24:26.274Z,0.00
2018-12-24T03:25:26.214Z,0.00
2018-12-24T03:26:26.211Z,0.00
2018-12-24T03:27:26.175Z,0.00
2018-12-24T03:28:26.154Z,0.00
2018-12-24T03:29:26.133Z,0.00
2018-12-24T03:30:26.094Z,0.00
2018-12-24T03:31:26.072Z,0.00
2018-12-24T03:32:26.053Z,0.00
2018-12-24T03:33:26.018Z,0.00
2018-12-24T03:34:26.019Z,0.00
2018-12-24T03:35:25.976Z,0.00
2018-12-24T03:36:25.982Z,0.00
2018-12-24T03:37:25.959Z,0.00
2018-12-24T03:38:25.943Z,0.00
2018-12-24T03:39:25.916Z,0.00
2018-12-24T03:40:25.894Z,0.00
2018-12-24T03:41:25.885Z,0.00
2018-12-24T03:42:25.840Z,0.00
2018-12-24T03:43:25.792Z,0.00
2018-12-24T03:44:25.792Z,0.00
2018-12-24T03:45:25.733Z,0.00
2018-12-24T03:46:25.705Z,0.00
2018-12-24T03:47:25.681Z,0.00
2018-12-24T03:48:25.673Z,0.00
2018-12-24T03:49:25.642Z,0.00
2018-12-24T03:50:25.633Z,0.00
2018-12-24T03:51:25.594Z,0.00
2018-12-24T03:52:25.568Z,0.00
2018-12-24T03:53:25.549Z,0.00
2018-12-24T03:54:25.526Z,0.00
2018-12-24T03:55:25.507Z,0.00
2018-12-24T03:56:25.473Z,0.00
2018-12-24T03:57:25.452Z,0.00
2018-12-24T03:58:25.444Z,0.00
2018-12-24T03:59:25.408Z,0.00
2018-12-24T04:00:25.379Z,0.00
2018-12-24T04:01:25.364Z,0.00
2018-12-24T04:02:25.333Z,0.00
2018-12-24T04:03:25.308Z,0.00
2018-12-24T04:04:25.289Z,0.00
2018-12-24T04:05:25.268Z,0.00
2018-12-24T04:06:25.235Z,0.00
2018-12-24T04:07:25.242Z,0.00
2018-12-24T04:08:25.216Z,0.00
2018-12-24T04:09:25.181Z,0.00
2018-12-24T04:10:25.146Z,0.00
2018-12-24T04:11:25.146Z,0.00
2018-12-24T04:12:25.104Z,0.00
2018-12-24T04:13:25.078Z,0.00
2018-12-24T04:14:25.053Z,0.00
2018-12-24T04:15:25.061Z,0.00
2018-12-24T04:16:25.003Z,0.00
2018-12-24T04:17:24.981Z,0.00
2018-12-24T04:18:24.956Z,0.00
2018-12-24T04:19:24.932Z,0.00
2018-12-24T04:20:24.914Z,0.00
2018-12-24T04:21:24.901Z,0.00
2018-12-24T04:22:24.860Z,0.00
2018-12-24T04:23:24.853Z,0.00
2018-12-24T04:24:24.832Z,0.00
2018-12-24T04:25:24.815Z,0.00
2018-12-24T04:26:24.766Z,0.00
2018-12-24T04:27:24.743Z,0.00
2018-12-24T04:28:24.785Z,0.00
2018-12-24T04:29:24.736Z,0.00
2018-12-24T04:30:24.682Z,0.00
2018-12-24T04:31:24.660Z,0.00
2018-12-24T04:32:24.626Z,0.00
2018-12-24T04:33:24.614Z,0.00
2018-12-24T04:34:24.610Z,0.00
2018-12-24T04:35:24.559Z,0.00
2018-12-24T04:36:24.533Z,0.00
2018-12-24T04:37:24.508Z,0.00
2018-12-24T04:38:24.532Z,0.00
2018-12-24T04:39:24.465Z,0.00
2018-12-24T04:40:24.446Z,0.00
2018-12-24T04:41:24.473Z,0.00
2018-12-24T04:42:24.406Z,0.00
2018-12-24T04:43:32.011Z,0.00
2018-12-24T04:44:24.348Z,0.00
2018-12-24T04:45:24.357Z,0.00
2018-12-24T04:46:24.314Z,0.00
2018-12-24T04:47:24.271Z,0.00
2018-12-24T04:48:24.258Z,0.00
2018-12-24T04:49:24.221Z,0.00
2018-12-24T04:50:24.220Z,0.00
2018-12-24T04:51:24.179Z,0.00
2018-12-24T04:52:24.175Z,0.00
2018-12-24T04:53:24.133Z,0.00
2018-12-24T04:54:24.112Z,0.00
2018-12-24T04:55:24.092Z,0.00
2018-12-24T04:56:24.068Z,0.00
2018-12-24T04:57:24.064Z,0.00
2018-12-24T04:58:24.046Z,0.00
2018-12-24T04:59:23.994Z,0.00
2018-12-24T05:00:24.015Z,0.00
2018-12-24T05:01:23.942Z,0.00
2018-12-24T05:02:23.927Z,0.00
2018-12-24T05:03:23.919Z,0.00
2018-12-24T05:04:23.932Z,0.00
2018-12-24T05:05:23.844Z,0.00
2018-12-24T05:06:23.876Z,0.00
2018-12-24T05:07:23.806Z,0.00
2018-12-24T05:08:23.779Z,0.00
2018-12-24T05:09:23.789Z,0.00
2018-12-24T05:10:23.741Z,0.00
2018-12-24T05:11:23.705Z,0.00
2018-12-24T05:12:23.705Z,0.00
2018-12-24T05:13:23.663Z,0.00
2018-12-24T05:14:23.648Z,0.00
2018-12-24T05:15:23.645Z,0.00
2018-12-24T05:16:23.617Z,0.00
2018-12-24T05:17:23.565Z,0.00
2018-12-24T05:18:23.588Z,0.00
2018-12-24T05:19:23.581Z,0.00
2018-12-24T05:20:23.498Z,0.00
2018-12-24T05:21:23.499Z,0.00
2018-12-24T05:22:23.469Z,0.00
2018-12-24T05:23:23.433Z,0.00
2018-12-24T05:24:23.399Z,0.00
2018-12-24T05:25:23.377Z,0.00
2018-12-24T05:26:23.354Z,0.00
2018-12-24T05:27:23.348Z,0.00
2018-12-24T05:28:23.310Z,0.00
2018-12-24T05:29:23.320Z,0.00
2018-12-24T05:30:23.263Z,0.00
2018-12-24T05:31:23.258Z,0.00
2018-12-24T05:32:23.234Z,0.00
2018-12-24T05:33:23.203Z,0.00
2018-12-24T05:34:23.191Z,0.00
2018-12-24T05:35:23.135Z,0.00
2018-12-24T05:36:23.125Z,0.00
2018-12-24T05:37:23.111Z,0.00
2018-12-24T05:38:23.067Z,0.00
2018-12-24T05:39:23.057Z,0.00
2018-12-24T05:40:23.015Z,0.00
2018-12-24T05:41:22.995Z,0.00
2018-12-24T05:42:23.005Z,0.00
2018-12-24T05:43:22.970Z,0.00
2018-12-24T05:44:22.939Z,0.00
2018-12-24T05:45:22.924Z,0.00
2018-12-24T05:46:22.915Z,0.00
2018-12-24T05:47:22.855Z,0.00
2018-12-24T05:48:22.860Z,0.00
2018-12-24T05:49:22.806Z,0.00
2018-12-24T05:50:22.794Z,0.00
2018-12-24T05:51:22.765Z,0.00
2018-12-24T05:52:22.732Z,0.00
2018-12-24T05:53:22.736Z,0.00
2018-12-24T05:54:22.744Z,0.00
2018-12-24T05:55:22.663Z,0.00
2018-12-24T05:56:22.649Z,0.00
2018-12-24T05:57:22.630Z,0.00
2018-12-24T05:58:22.601Z,0.00
2018-12-24T05:59:22.609Z,0.00
2018-12-24T06:00:22.544Z,0.00
2018-12-24T06:01:22.545Z,0.00
2018-12-24T06:02:22.526Z,0.00
2018-12-24T06:03:22.510Z,0.00
2018-12-24T06:04:22.454Z,0.00
2018-12-24T06:05:22.444Z,0.00
2018-12-24T06:06:22.401Z,0.00
2018-12-24T06:07:22.419Z,0.00
2018-12-24T06:08:22.355Z,0.00
2018-12-24T06:09:22.332Z,0.00
2018-12-24T06:10:22.306Z,0.00
2018-12-24T06:11:22.285Z,0.00
2018-12-24T06:12:22.276Z,0.00
2018-12-24T06:13:22.239Z,0.00
2018-12-24T06:14:22.217Z,0.00
2018-12-24T06:15:22.201Z,0.00
2018-12-24T06:16:22.256Z,0.00
2018-12-24T06:17:22.195Z,0.00
2018-12-24T06:18:22.125Z,0.00
2018-12-24T06:19:22.114Z,0.00
2018-12-24T06:20:22.077Z,0.00
2018-12-24T06:21:22.048Z,0.00
2018-12-24T06:22:22.051Z,0.00
2018-12-24T06:23:22.005Z,0.00
2018-12-24T06:24:21.997Z,0.00
2018-12-24T06:25:21.978Z,0.00
2018-12-24T06:26:21.938Z,0.00
2018-12-24T06:27:21.906Z,0.00
2018-12-24T06:28:21.897Z,0.00
2018-12-24T06:29:21.862Z,0.00
2018-12-24T06:30:21.855Z,0.00
2018-12-24T06:31:21.849Z,0.00
2018-12-24T06:32:21.828Z,0.00
2018-12-24T06:33:21.769Z,0.00
2018-12-24T06:34:21.738Z,0.00
2018-12-24T06:35:21.721Z,0.00
2018-12-24T06:36:21.690Z,0.00
2018-12-24T06:37:21.672Z,0.00
2018-12-24T06:38:21.699Z,0.00
2018-12-24T06:39:21.620Z,0.00
2018-12-24T06:40:21.636Z,0.00
2018-12-24T06:41:21.590Z,0.00
2018-12-24T06:42:21.552Z,0.00
2018-12-24T06:43:21.539Z,0.00
2018-12-24T06:44:21.508Z,0.00
2018-12-24T06:45:21.496Z,0.00
2018-12-24T06:46:21.464Z,0.00
2018-12-24T06:47:21.432Z,0.00
2018-12-24T06:48:21.418Z,0.00
2018-12-24T06:49:21.391Z,0.00
2018-12-24T06:50:21.383Z,0.00
2018-12-24T06:51:21.354Z,0.00
2018-12-24T06:52:21.346Z,0.00
2018-12-24T06:53:21.299Z,0.00
2018-12-24T06:54:21.273Z,0.00
2018-12-24T06:55:21.263Z,0.00
2018-12-24T06:56:21.289Z,0.00
2018-12-24T06:57:21.234Z,0.00
2018-12-24T06:58:21.180Z,0.00
2018-12-24T06:59:21.155Z,0.00
2018-12-24T07:00:21.159Z,0.00
2018-12-24T07:01:21.101Z,0.00
2018-12-24T07:02:21.138Z,0.00
2018-12-24T07:03:21.097Z,0.00
2018-12-24T07:05:54.204Z,4.00
2018-12-24T07:06:44.121Z,4.00
2018-12-24T07:07:44.010Z,0.00
2018-12-24T07:08:44.037Z,0.00
2018-12-24T07:09:44.031Z,4.00
2018-12-24T07:10:43.975Z,0.00
2018-12-24T07:11:43.933Z,4.00
2018-12-24T07:12:43.916Z,4.00
2018-12-24T07:13:43.866Z,8.00
2018-12-24T07:14:43.854Z,8.00
2018-12-24T07:15:43.835Z,8.00
2018-12-24T07:16:43.829Z,8.00
2018-12-24T07:17:43.775Z,8.00
2018-12-24T07:18:43.871Z,12.00
2018-12-24T07:19:43.731Z,12.00
2018-12-24T07:20:43.707Z,16.00
2018-12-24T07:21:43.677Z,20.00
2018-12-24T07:22:43.686Z,20.00
2018-12-24T07:23:43.684Z,24.00
2018-12-24T07:24:43.606Z,28.00
2018-12-24T07:25:43.609Z,28.00
2018-12-24T07:26:43.554Z,32.00
2018-12-24T07:27:43.563Z,32.00
2018-12-24T07:28:43.513Z,36.00
2018-12-24T07:29:43.497Z,40.00
2018-12-24T07:30:43.467Z,48.00
2018-12-24T07:31:43.445Z,48.00
2018-12-24T07:32:43.433Z,52.00
2018-12-24T07:33:43.403Z,60.00
2018-12-24T07:34:43.383Z,60.00
2018-12-24T07:35:43.370Z,68.00
2018-12-24T07:36:43.346Z,76.00
2018-12-24T07:37:43.295Z,80.00
2018-12-24T07:38:43.306Z,88.00
2018-12-24T07:39:43.264Z,92.00
2018-12-24T07:40:43.289Z,100.00
2018-12-24T07:41:43.237Z,108.00
2018-12-24T07:42:43.199Z,120.00
2018-12-24T07:43:43.163Z,120.00
2018-12-24T07:44:43.133Z,120.00
2018-12-24T07:45:43.121Z,124.00
2018-12-24T07:46:43.096Z,136.00
2018-12-24T07:47:43.069Z,152.00
2018-12-24T07:48:43.074Z,152.00
2018-12-24T07:49:43.025Z,152.00
2018-12-24T07:50:42.986Z,148.00
2018-12-24T07:51:42.982Z,164.00
2018-12-24T07:52:42.948Z,180.00
2018-12-24T07:53:42.924Z,196.00
2018-12-24T07:54:42.896Z,216.00
2018-12-24T07:55:42.867Z,216.00
2018-12-24T07:56:42.847Z,220.00
2018-12-24T07:57:42.848Z,232.00
2018-12-24T07:58:42.820Z,252.00
2018-12-24T07:59:42.816Z,276.00
2018-12-24T08:00:42.757Z,288.00
2018-12-24T08:01:42.752Z,304.00
2018-12-24T08:02:42.748Z,332.00
2018-12-24T08:03:42.700Z,352.00
2018-12-24T08:04:42.693Z,364.00
2018-12-24T08:05:42.654Z,404.00
2018-12-24T08:06:42.611Z,416.00
2018-12-24T08:07:42.590Z,448.00
2018-12-24T08:08:42.585Z,468.00
2018-12-24T08:09:42.551Z,508.00
2018-12-24T08:10:42.523Z,548.00
2018-12-24T08:11:42.528Z,556.00
2018-12-24T08:12:42.491Z,580.00
2018-12-24T08:13:42.473Z,592.00
2018-12-24T08:14:42.459Z,604.00
2018-12-24T08:15:42.448Z,632.00
2018-12-24T08:16:42.371Z,672.00
2018-12-24T08:17:42.381Z,672.00
2018-12-24T08:18:42.360Z,688.00
2018-12-24T08:19:42.308Z,676.00
2018-12-24T08:20:42.325Z,668.00
2018-12-24T08:23:15.375Z,768.00
2018-12-24T08:24:05.289Z,776.00
2018-12-24T08:25:05.264Z,772.00
2018-12-24T08:26:05.240Z,776.00
2018-12-24T08:27:05.211Z,808.00
2018-12-24T08:28:05.178Z,792.00
2018-12-24T08:29:05.162Z,752.00
2018-12-24T08:30:05.139Z,684.00
2018-12-24T08:31:05.102Z,684.00
2018-12-24T08:32:05.120Z,804.00
2018-12-24T08:33:05.116Z,848.00
2018-12-24T08:34:05.051Z,856.00
2018-12-24T08:35:05.025Z,828.00
2018-12-24T08:36:05.062Z,844.00
2018-12-24T08:37:04.978Z,852.00
2018-12-24T08:38:04.953Z,856.00
2018-12-24T08:39:04.918Z,876.00
2018-12-24T08:40:04.888Z,884.00
2018-12-24T08:41:04.861Z,936.00
2018-12-24T08:42:04.840Z,992.00
2018-12-24T08:43:04.820Z,1024.00
2018-12-24T08:44:04.800Z,1040.00
2018-12-24T08:45:04.794Z,1076.00
2018-12-24T08:46:04.753Z,1068.00
2018-12-24T08:47:04.759Z,1116.00
2018-12-24T08:48:04.705Z,1140.00
2018-12-24T08:49:04.710Z,1172.00
2018-12-24T08:50:04.658Z,1204.00
2018-12-24T08:51:04.633Z,1196.00
2018-12-24T08:52:04.634Z,1144.00
2018-12-24T08:53:04.584Z,1096.00
2018-12-24T08:54:04.561Z,1132.00
2018-12-24T08:55:04.563Z,1004.00
2018-12-24T08:56:04.529Z,940.00
2018-12-24T08:57:04.492Z,988.00
2018-12-24T08:58:04.465Z,1020.00
2018-12-24T08:59:04.475Z,1004.00
2018-12-24T09:00:04.441Z,1260.00
2018-12-24T09:01:04.393Z,1748.00
2018-12-24T09:02:04.374Z,1380.00
2018-12-24T09:03:04.348Z,1592.00
2018-12-24T09:04:04.371Z,1424.00
2018-12-24T09:05:04.302Z,1176.00
2018-12-24T09:06:04.315Z,1068.00
2018-12-24T09:07:04.257Z,1164.00
2018-12-24T09:08:04.225Z,1120.00
2018-12-24T09:09:04.203Z,1152.00
2018-12-24T09:10:04.217Z,1056.00
2018-12-24T09:11:04.164Z,1016.00
2018-12-24T09:12:04.135Z,1060.00
2018-12-24T09:13:04.110Z,1004.00
2018-12-24T09:14:04.091Z,988.00
2018-12-24T09:15:04.071Z,992.00
2018-12-24T09:16:04.072Z,996.00
2018-12-24T09:17:04.011Z,992.00
2018-12-24T09:18:04.012Z,1000.00
2018-12-24T09:19:03.977Z,1032.00
2018-12-24T09:20:03.989Z,1136.00
2018-12-24T09:21:03.952Z,1080.00
2018-12-24T09:22:03.912Z,1100.00
2018-12-24T09:23:03.920Z,1088.00
2018-12-24T09:24:03.874Z,1112.00
2018-12-24T09:25:03.831Z,1040.00
2018-12-24T09:26:03.817Z,1120.00
2018-12-24T09:27:03.880Z,1124.00
2018-12-24T09:28:03.774Z,1132.00
2018-12-24T09:29:03.731Z,1128.00
2018-12-24T09:30:03.712Z,1132.00
2018-12-24T09:31:03.691Z,1132.00
2018-12-24T09:32:03.709Z,1140.00
2018-12-24T09:33:03.656Z,1144.00
2018-12-24T09:34:03.607Z,1144.00
2018-12-24T09:35:03.586Z,1140.00
2018-12-24T09:36:03.604Z,1148.00
2018-12-24T09:37:03.564Z,1152.00
2018-12-24T09:38:03.524Z,1156.00
2018-12-24T09:39:03.498Z,1160.00
2018-12-24T09:40:03.508Z,1160.00
2018-12-24T09:41:03.438Z,1160.00
2018-12-24T09:42:03.416Z,1164.00
2018-12-24T09:43:03.409Z,1172.00
2018-12-24T09:44:03.389Z,1180.00
2018-12-24T09:45:03.417Z,1184.00
2018-12-24T09:46:03.355Z,1188.00
2018-12-24T09:47:03.300Z,1192.00
2018-12-24T09:48:03.281Z,1192.00
2018-12-24T09:49:03.246Z,1200.00
2018-12-24T09:50:03.248Z,1196.00
2018-12-24T09:51:03.205Z,1204.00
2018-12-24T09:52:03.179Z,1208.00
2018-12-24T09:53:03.163Z,1212.00
2018-12-24T09:54:03.128Z,1216.00
2018-12-24T09:55:03.120Z,1224.00
2018-12-24T09:56:03.077Z,1216.00
2018-12-24T09:57:03.059Z,1220.00
2018-12-24T09:58:03.032Z,1220.00
2018-12-24T09:59:03.008Z,1224.00
2018-12-24T10:00:03.010Z,1236.00
2018-12-24T10:01:02.993Z,1240.00
2018-12-24T10:02:02.944Z,1240.00
2018-12-24T10:03:02.950Z,1260.00
2018-12-24T10:04:03.206Z,1264.00
2018-12-24T10:05:02.914Z,1256.00
2018-12-24T10:06:02.850Z,1276.00
2018-12-24T10:07:02.832Z,1284.00
2018-12-24T10:08:02.792Z,1300.00
2018-12-24T10:09:02.767Z,1296.00
2018-12-24T10:10:02.753Z,1240.00
2018-12-24T10:11:02.801Z,1320.00
2018-12-24T10:12:02.687Z,1304.00
2018-12-24T10:13:02.686Z,1300.00
2018-12-24T10:14:02.670Z,1712.00
2018-12-24T10:15:08.041Z,1416.00
2018-12-24T10:16:02.624Z,1248.00
2018-12-24T10:17:02.575Z,1328.00
2018-12-24T10:18:02.633Z,1344.00
2018-12-24T10:19:02.577Z,1384.00
2018-12-24T10:20:02.519Z,1408.00
2018-12-24T10:21:02.523Z,1588.00
2018-12-24T10:22:02.468Z,1716.00
2018-12-24T10:23:02.422Z,1756.00
2018-12-24T10:24:02.408Z,1836.00
2018-12-24T10:25:02.406Z,1656.00
2018-12-24T10:26:02.386Z,1596.00
2018-12-24T10:27:02.325Z,1872.00
2018-12-24T10:28:02.307Z,2188.00
2018-12-24T10:29:02.280Z,1724.00
2018-12-24T10:30:02.264Z,1408.00
2018-12-24T10:31:02.232Z,1696.00
2018-12-24T10:32:02.226Z,1860.00
2018-12-24T10:33:02.184Z,2012.00
2018-12-24T10:34:02.186Z,2176.00
2018-12-24T10:35:02.139Z,2004.00
2018-12-24T10:36:02.113Z,1588.00
2018-12-24T10:37:02.125Z,1532.00
2018-12-24T10:38:02.064Z,1532.00
2018-12-24T10:39:02.051Z,1600.00
2018-12-24T10:40:02.106Z,1644.00
2018-12-24T10:41:01.987Z,1584.00
2018-12-24T10:42:02.004Z,1564.00
2018-12-24T10:43:01.949Z,1428.00
2018-12-24T10:44:01.915Z,1368.00
2018-12-24T10:45:01.896Z,1452.00
2018-12-24T10:46:01.872Z,1564.00
2018-12-24T10:47:01.844Z,1652.00
2018-12-24T10:48:01.825Z,1516.00
2018-12-24T10:49:01.801Z,1392.00
2018-12-24T10:50:01.779Z,1380.00
2018-12-24T10:51:01.752Z,1448.00
2018-12-24T10:52:01.746Z,1488.00
2018-12-24T10:53:01.701Z,1444.00
2018-12-24T10:54:01.693Z,1432.00
2018-12-24T10:55:01.658Z,1356.00
2018-12-24T10:56:01.663Z,1376.00
2018-12-24T10:57:01.627Z,1392.00
2018-12-24T10:58:01.608Z,1512.00
2018-12-24T10:59:01.570Z,1552.00
2018-12-24T11:00:01.566Z,1636.00
2018-12-24T11:01:01.516Z,1608.00
2018-12-24T11:02:01.495Z,1868.00
2018-12-24T11:03:01.463Z,1668.00
2018-12-24T11:04:01.434Z,1792.00
2018-12-24T11:05:01.421Z,1756.00
2018-12-24T11:06:01.390Z,1928.00
2018-12-24T11:07:01.394Z,2192.00
2018-12-24T11:08:01.353Z,2608.00
2018-12-24T11:09:01.365Z,3552.00
2018-12-24T11:10:01.323Z,4148.00
2018-12-24T11:11:01.304Z,4180.00
2018-12-24T11:12:01.274Z,3184.00
2018-12-24T11:13:01.220Z,2808.00
2018-12-24T11:14:01.225Z,3164.00
2018-12-24T11:15:01.259Z,2956.00
2018-12-24T11:16:01.155Z,3372.00
2018-12-24T11:17:01.137Z,3728.00
2018-12-24T11:18:01.143Z,3044.00
2018-12-24T11:19:01.084Z,2992.00
2018-12-24T11:20:01.057Z,3004.00
2018-12-24T11:21:01.040Z,2380.00
2018-12-24T11:22:01.034Z,1928.00
2018-12-24T11:23:01.140Z,1556.00
2018-12-24T11:24:00.971Z,1872.00
2018-12-24T11:25:00.947Z,2676.00
2018-12-24T11:26:00.922Z,2440.00
2018-12-24T11:27:00.905Z,2268.00
2018-12-24T11:28:00.865Z,2148.00
2018-12-24T11:29:00.850Z,2352.00
2018-12-24T11:30:00.831Z,2500.00
2018-12-24T11:31:00.819Z,2308.00
2018-12-24T11:32:01.423Z,2728.00
2018-12-24T11:33:00.761Z,2920.00
2018-12-24T11:34:00.731Z,2388.00
2018-12-24T11:35:00.705Z,1828.00
2018-12-24T11:36:00.677Z,1500.00
2018-12-24T11:37:00.688Z,1376.00
2018-12-24T11:38:00.641Z,1368.00
2018-12-24T11:39:00.615Z,1456.00
2018-12-24T11:40:00.599Z,1488.00
2018-12-24T11:41:00.563Z,1728.00
2018-12-24T11:42:00.542Z,1996.00
2018-12-24T11:43:00.859Z,2432.00
2018-12-24T11:44:00.520Z,2276.00
2018-12-24T11:45:00.557Z,1900.00
2018-12-24T11:46:00.460Z,2036.00
2018-12-24T11:47:00.522Z,2168.00
2018-12-24T11:48:00.407Z,1960.00
2018-12-24T11:49:00.372Z,2048.00
2018-12-24T11:50:00.365Z,2008.00
2018-12-24T11:51:00.372Z,1768.00
2018-12-24T11:52:00.310Z,1840.00
2018-12-24T11:53:00.292Z,1796.00
2018-12-24T11:54:00.289Z,1900.00
2018-12-24T11:55:00.261Z,1892.00
2018-12-24T11:56:00.211Z,1988.00
2018-12-24T11:57:00.193Z,2116.00
2018-12-24T11:58:00.164Z,2080.00
2018-12-24T11:59:00.252Z,2248.00
2018-12-24T12:00:00.129Z,2736.00
2018-12-24T12:01:00.208Z,2976.00
2018-12-24T12:02:00.086Z,2852.00
2018-12-24T12:03:00.044Z,2700.00
2018-12-24T12:04:00.053Z,2912.00
2018-12-24T12:05:00.031Z,3136.00
2018-12-24T12:06:00.083Z,3208.00
2018-12-24T12:07:00.044Z,3236.00
2018-12-24T12:07:59.978Z,3200.00
2018-12-24T12:08:59.930Z,3108.00
2018-12-24T12:09:59.911Z,2476.00
2018-12-24T12:11:01.617Z,2484.00
2018-12-24T12:11:59.838Z,2372.00
2018-12-24T12:12:59.819Z,2100.00
2018-12-24T12:13:59.785Z,2300.00
2018-12-24T12:14:59.800Z,2504.00
2018-12-24T12:15:59.747Z,2484.00
2018-12-24T12:16:59.753Z,2488.00
2018-12-24T12:17:59.721Z,2264.00
2018-12-24T12:18:59.672Z,2572.00
2018-12-24T12:19:59.646Z,2688.00
2018-12-24T12:20:59.643Z,2424.00
2018-12-24T12:21:59.618Z,2072.00
2018-12-24T12:22:59.573Z,1992.00
2018-12-24T12:24:03.284Z,2320.00
2018-12-24T12:24:59.535Z,3016.00
2018-12-24T12:25:59.513Z,3696.00
2018-12-24T12:26:59.481Z,4056.00
2018-12-24T12:27:59.472Z,3544.00
2018-12-24T12:28:59.443Z,3216.00
2018-12-24T12:29:59.464Z,3176.00
2018-12-24T12:30:59.392Z,3092.00
2018-12-24T12:31:59.387Z,2412.00
2018-12-24T12:32:59.359Z,2260.00
2018-12-24T12:33:59.323Z,2532.00
2018-12-24T12:34:59.325Z,2712.00
2018-12-24T12:35:59.318Z,2672.00
2018-12-24T12:36:59.279Z,2448.00
2018-12-24T12:37:59.236Z,1728.00
2018-12-24T12:38:59.211Z,1384.00
2018-12-24T12:39:59.199Z,1380.00
2018-12-24T12:40:59.162Z,1564.00
2018-12-24T12:41:59.156Z,1892.00
2018-12-24T12:42:59.114Z,1956.00
2018-12-24T12:43:59.095Z,2128.00
2018-12-24T12:44:59.068Z,2188.00
2018-12-24T12:45:59.057Z,1872.00
2018-12-24T12:46:59.092Z,1660.00
2018-12-24T12:47:59.053Z,1736.00
2018-12-24T12:48:59.042Z,1860.00
2018-12-24T12:49:58.948Z,2164.00
2018-12-24T12:50:58.926Z,2088.00
2018-12-24T12:51:58.911Z,2020.00
2018-12-24T12:52:58.951Z,2140.00
2018-12-24T12:53:58.879Z,2272.00
2018-12-24T12:54:58.860Z,2304.00
2018-12-24T12:55:58.823Z,1904.00
2018-12-24T12:56:58.798Z,1772.00
2018-12-24T12:57:58.768Z,1772.00
2018-12-24T12:58:58.784Z,1828.00
2018-12-24T12:59:58.726Z,2000.00
2018-12-24T13:00:58.701Z,2132.00
2018-12-24T13:01:58.798Z,2324.00
2018-12-24T13:02:58.673Z,2268.00
2018-12-24T13:03:58.660Z,1800.00
2018-12-24T13:04:58.638Z,1712.00
2018-12-24T13:05:58.663Z,1744.00
2018-12-24T13:06:58.567Z,1784.00
2018-12-24T13:07:58.547Z,2096.00
2018-12-24T13:08:58.532Z,2488.00
2018-12-24T13:09:58.516Z,2620.00
2018-12-24T13:10:58.459Z,2868.00
2018-12-24T13:11:58.501Z,2580.00
2018-12-24T13:12:58.422Z,2404.00
2018-12-24T13:13:58.395Z,2360.00
2018-12-24T13:14:58.378Z,2628.00
2018-12-24T13:15:59.709Z,2600.00
2018-12-24T13:16:58.347Z,2492.00
2018-12-24T13:17:58.304Z,2776.00
2018-12-24T13:18:58.360Z,2432.00
2018-12-24T13:19:58.274Z,2264.00
2018-12-24T13:20:58.249Z,2024.00